createdAt,value
2023-02-11T00:01:25.455Z,103051.44
2023-02-11T00:03:52.598Z,103044.16
2023-02-11T00:06:19.381Z,103041.44
2023-02-11T00:08:45.963Z,103039.09
2023-02-11T00:11:14.920Z,103030.78
2023-02-11T00:13:42.627Z,103041.91
2023-02-11T00:16:12.166Z,103031.59
2023-02-11T00:18:38.982Z,103033.44
2023-02-11T00:21:17.167Z,103033.28
2023-02-11T00:23:45.005Z,103024.16
2023-02-11T00:26:13.447Z,103040.38
2023-02-11T00:28:40.586Z,103029.38
2023-02-11T00:31:07.409Z,103023.16
2023-02-11T00:33:33.804Z,103023.16
2023-02-11T00:36:04.905Z,103021.66
2023-02-11T00:38:31.540Z,103026.84
2023-02-11T00:40:57.960Z,103017.22
2023-02-11T00:43:25.373Z,103023.03
2023-02-11T00:45:52.483Z,103018.81
2023-02-11T00:48:19.131Z,103014.28
2023-02-11T00:50:45.497Z,103017.03
2023-02-11T00:53:12.157Z,103002.53
2023-02-11T00:55:38.579Z,102998.47
2023-02-11T00:58:05.012Z,103008.88
2023-02-11T01:00:31.477Z,103001.66
2023-02-11T01:02:57.837Z,103005.19
2023-02-11T01:05:24.378Z,103003.13
2023-02-11T01:07:50.883Z,103005.25
2023-02-11T01:10:17.782Z,103007.34
2023-02-11T01:12:44.165Z,102995.03
2023-02-11T01:15:14.644Z,103011.34
2023-02-11T01:17:41.031Z,103016.13
2023-02-11T01:20:11.791Z,103010.66
2023-02-11T01:22:39.654Z,103014.34
2023-02-11T01:25:09.179Z,103006.22
2023-02-11T01:27:36.465Z,103000.97
2023-02-11T01:30:04.303Z,103004.34
2023-02-11T01:32:30.644Z,102993.53
2023-02-11T01:34:57.002Z,103010.53
2023-02-11T01:37:23.662Z,103008.66
2023-02-11T01:39:50.070Z,103002.38
2023-02-11T01:42:19.438Z,103019.09
2023-02-11T01:44:49.669Z,103022.91
2023-02-11T01:47:16.018Z,103029.97
2023-02-11T01:49:49.840Z,103029.97
2023-02-11T01:52:25.546Z,103027.25
2023-02-11T01:55:14.315Z,103030.09
2023-02-11T01:57:47.410Z,103018.28
2023-02-11T02:00:18.113Z,103017.88
2023-02-11T02:02:54.841Z,103005.56
2023-02-11T02:05:40.047Z,103004.16
2023-02-11T02:08:21.660Z,103013.34
2023-02-11T02:10:56.277Z,103014.75
2023-02-11T02:13:24.537Z,103008.38
2023-02-11T02:15:54.573Z,103009.75
2023-02-11T02:18:39.167Z,103000.00
2023-02-11T02:21:30.878Z,103005.41
2023-02-11T02:24:12.545Z,103015.22
2023-02-11T02:26:55.447Z,103004.06
2023-02-11T02:29:55.996Z,102989.06
2023-02-11T02:32:26.200Z,102988.91
2023-02-11T02:35:17.164Z,102985.84
2023-02-11T02:38:06.877Z,102990.25
2023-02-11T02:40:41.408Z,102981.81
2023-02-11T02:43:10.380Z,102984.50
2023-02-11T02:45:36.848Z,102985.72
2023-02-11T02:48:03.280Z,102970.34
2023-02-11T02:50:35.203Z,102962.75
2023-02-11T02:53:19.295Z,102960.22
2023-02-11T02:56:03.254Z,102966.66
2023-02-11T02:58:47.181Z,102960.72
2023-02-11T03:01:25.931Z,102950.44
2023-02-11T03:04:05.810Z,102946.72
2023-02-11T03:06:57.244Z,102944.69
2023-02-11T03:09:36.288Z,102964.25
2023-02-11T03:12:04.549Z,102954.81
2023-02-11T03:14:32.158Z,102955.84
2023-02-11T03:17:01.178Z,102960.56
2023-02-11T03:19:33.273Z,102958.88
2023-02-11T03:22:02.238Z,102958.34
2023-02-11T03:24:33.194Z,102960.22
2023-02-11T03:27:33.322Z,102960.06
2023-02-11T03:30:13.287Z,102963.59
2023-02-11T03:32:49.319Z,102966.13
2023-02-11T03:35:23.067Z,102962.09
2023-02-11T03:37:55.996Z,102949.09
2023-02-11T03:40:26.278Z,102948.06
2023-02-11T03:42:52.540Z,102935.44
2023-02-11T03:45:22.115Z,102932.22
2023-02-11T03:48:11.623Z,102930.72
2023-02-11T03:50:39.997Z,102929.88
2023-02-11T03:53:07.830Z,102938.97
2023-02-11T03:55:38.584Z,102950.09
2023-02-11T03:58:05.268Z,102949.78
2023-02-11T04:00:34.724Z,102951.28
2023-02-11T04:03:01.229Z,102951.81
2023-02-11T04:05:27.713Z,102959.59
2023-02-11T04:07:54.068Z,102962.28
2023-02-11T04:10:20.691Z,102957.88
2023-02-11T04:12:47.268Z,102953.50
2023-02-11T04:15:13.746Z,102954.34
2023-02-11T04:17:41.606Z,102949.94
2023-02-11T04:20:09.344Z,102942.50
2023-02-11T04:22:36.075Z,102952.47
2023-02-11T04:25:03.959Z,102947.06
2023-02-11T04:27:30.478Z,102952.84
2023-02-11T04:29:56.920Z,102939.13
2023-02-11T04:32:23.473Z,102933.25
2023-02-11T04:34:49.875Z,102933.25
2023-02-11T04:37:16.496Z,102926.81
2023-02-11T04:39:42.880Z,102921.25
2023-02-11T04:42:09.376Z,102923.13
2023-02-11T04:44:35.738Z,102921.78
2023-02-11T04:47:02.152Z,102911.28
2023-02-11T04:49:28.809Z,102915.84
2023-02-11T04:51:55.219Z,102921.09
2023-02-11T04:54:22.105Z,102923.97
2023-02-11T04:56:49.644Z,102921.09
2023-02-11T04:59:16.026Z,102920.25
2023-02-11T05:01:42.737Z,102924.13
2023-02-11T05:04:09.195Z,102926.16
2023-02-11T05:06:35.722Z,102928.84
2023-02-11T05:09:02.107Z,102936.28
2023-02-11T05:11:28.463Z,102936.28
2023-02-11T05:13:55.014Z,102927.50
2023-02-11T05:16:21.828Z,102928.50
2023-02-11T05:18:52.438Z,102928.19
2023-02-11T05:21:19.348Z,102928.50
2023-02-11T05:23:46.257Z,102919.06
2023-02-11T05:26:13.807Z,102925.47
2023-02-11T05:28:40.466Z,102924.47
2023-02-11T05:31:07.287Z,102926.50
2023-02-11T05:33:34.157Z,102930.53
2023-02-11T05:36:09.033Z,102926.31
2023-02-11T05:38:36.308Z,102935.63
2023-02-11T05:41:04.670Z,102923.09
2023-02-11T05:43:31.479Z,102924.44
2023-02-11T05:45:58.108Z,102919.72
2023-02-11T05:48:24.451Z,102922.94
2023-02-11T05:50:50.809Z,102921.75
2023-02-11T05:53:17.286Z,102920.94
2023-02-11T05:55:44.055Z,102914.66
2023-02-11T05:58:10.883Z,102916.03
2023-02-11T06:00:37.686Z,102916.88
2023-02-11T06:03:07.030Z,102907.22
2023-02-11T06:05:33.747Z,102900.97
2023-02-11T06:08:00.155Z,102897.59
2023-02-11T06:10:26.951Z,102890.19
2023-02-11T06:12:53.372Z,102894.75
2023-02-11T06:15:19.728Z,102890.34
2023-02-11T06:17:46.110Z,102898.44
2023-02-11T06:20:12.680Z,102895.09
2023-02-11T06:22:39.125Z,102894.41
2023-02-11T06:25:05.992Z,102902.84
2023-02-11T06:27:32.456Z,102901.16
2023-02-11T06:29:58.819Z,102908.59
2023-02-11T06:32:45.092Z,102903.88
2023-02-11T06:35:13.672Z,102907.22
2023-02-11T06:37:41.060Z,102903.69
2023-02-11T06:40:08.516Z,102910.97
2023-02-11T06:42:36.155Z,102911.28
2023-02-11T06:45:02.714Z,102909.59
2023-02-11T06:47:29.101Z,102907.59
2023-02-11T06:49:55.690Z,102915.31
2023-02-11T06:52:22.154Z,102917.72
2023-02-11T06:54:48.530Z,102919.56
2023-02-11T06:57:14.973Z,102923.78
2023-02-11T06:59:41.389Z,102929.53
2023-02-11T07:02:10.239Z,102921.44
2023-02-11T07:04:36.700Z,102928.50
2023-02-11T07:07:03.031Z,102934.56
2023-02-11T07:09:29.366Z,102930.03
2023-02-11T07:11:55.697Z,102931.03
2023-02-11T07:14:22.046Z,102932.56
2023-02-11T07:16:48.379Z,102925.97
2023-02-11T07:19:14.757Z,102926.81
2023-02-11T07:21:41.271Z,102922.44
2023-02-11T07:24:11.023Z,102936.28
2023-02-11T07:26:38.117Z,102934.94
2023-02-11T07:29:04.691Z,102943.19
2023-02-11T07:31:31.827Z,102942.19
2023-02-11T07:34:00.436Z,102950.09
2023-02-11T07:36:27.936Z,102954.84
2023-02-11T07:38:54.387Z,102953.47
2023-02-11T07:41:22.774Z,102955.50
2023-02-11T07:43:49.909Z,102963.13
2023-02-11T07:46:19.879Z,102955.72
2023-02-11T07:48:46.828Z,102955.72
2023-02-11T07:51:22.737Z,102960.44
2023-02-11T07:53:49.660Z,102956.84
2023-02-11T07:56:17.148Z,102955.34
2023-02-11T07:58:44.055Z,102959.75
2023-02-11T08:01:13.250Z,102961.94
2023-02-11T08:03:41.905Z,102969.03
2023-02-11T08:06:11.639Z,102976.78
2023-02-11T08:08:38.275Z,102978.97
2023-02-11T08:11:22.046Z,102982.56
2023-02-11T08:13:49.198Z,102982.03
2023-02-11T08:16:23.844Z,102983.22
2023-02-11T08:18:51.638Z,102981.53
2023-02-11T08:21:18.815Z,102978.81
2023-02-11T08:23:46.195Z,102976.97
2023-02-11T08:26:15.794Z,102971.03
2023-02-11T08:28:44.137Z,102975.97
2023-02-11T08:31:17.206Z,102972.06
2023-02-11T08:33:44.136Z,102975.28
2023-02-11T08:36:12.656Z,102974.44
2023-02-11T08:38:39.063Z,102982.19
2023-02-11T08:41:05.780Z,102978.31
2023-02-11T08:43:33.233Z,102983.56
2023-02-11T08:46:02.147Z,102977.31
2023-02-11T08:48:29.367Z,102982.56
2023-02-11T08:50:56.718Z,102982.19
2023-02-11T08:53:23.496Z,102992.00
2023-02-11T08:55:54.878Z,102994.03
2023-02-11T08:58:22.255Z,102989.31
2023-02-11T09:00:50.121Z,102997.41
2023-02-11T09:03:17.581Z,102995.41
2023-02-11T09:05:46.437Z,103007.88
2023-02-11T09:08:13.055Z,103019.34
2023-02-11T09:10:40.204Z,103019.03
2023-02-11T09:13:07.634Z,103030.19
2023-02-11T09:15:34.300Z,103026.13
2023-02-11T09:18:01.272Z,103025.75
2023-02-11T09:20:27.921Z,103029.50
2023-02-11T09:22:56.602Z,103028.81
2023-02-11T09:25:22.965Z,103036.09
2023-02-11T09:27:49.843Z,103024.44
2023-02-11T09:30:16.307Z,103023.91
2023-02-11T09:32:42.838Z,103033.53
2023-02-11T09:35:09.196Z,103028.81
2023-02-11T09:37:37.348Z,103028.13
2023-02-11T09:40:04.157Z,103038.63
2023-02-11T09:42:38.817Z,103028.47
2023-02-11T09:45:20.879Z,103027.47
2023-02-11T09:48:06.276Z,103028.16
2023-02-11T09:50:36.975Z,103038.09
2023-02-11T09:53:14.545Z,103035.09
2023-02-11T09:55:48.318Z,103046.06
2023-02-11T09:58:19.503Z,103049.44
2023-02-11T10:00:56.767Z,103041.69
2023-02-11T10:03:41.529Z,103044.53
2023-02-11T10:06:16.115Z,103045.06
2023-02-11T10:08:54.670Z,103050.78
2023-02-11T10:11:32.681Z,103055.69
2023-02-11T10:14:29.499Z,103063.28
2023-02-11T10:17:20.166Z,103063.78
2023-02-11T10:20:02.850Z,103067.84
2023-02-11T10:22:36.621Z,103071.06
2023-02-11T10:25:24.194Z,103068.03
2023-02-11T10:27:51.827Z,103058.19
2023-02-11T10:30:27.148Z,103057.88
2023-02-11T10:32:56.311Z,103056.34
2023-02-11T10:35:23.988Z,103060.22
2023-02-11T10:37:50.665Z,103064.31
2023-02-11T10:40:21.082Z,103060.59
2023-02-11T10:43:11.026Z,103068.34
2023-02-11T10:45:49.979Z,103070.56
2023-02-11T10:48:35.110Z,103063.97
2023-02-11T10:51:14.591Z,103075.13
2023-02-11T10:53:41.601Z,103065.97
2023-02-11T10:56:12.335Z,103069.34
2023-02-11T10:58:46.070Z,103069.03
2023-02-11T11:01:23.968Z,103067.00
2023-02-11T11:03:52.228Z,103069.84
2023-02-11T11:06:31.774Z,103072.41
2023-02-11T11:08:58.577Z,103067.81
2023-02-11T11:11:26.535Z,103068.81
2023-02-11T11:13:57.929Z,103063.94
2023-02-11T11:16:28.600Z,103065.13
2023-02-11T11:19:06.924Z,103068.34
2023-02-11T11:21:50.522Z,103064.94
2023-02-11T11:24:33.607Z,103064.59
2023-02-11T11:27:02.909Z,103066.28
2023-02-11T11:29:32.440Z,103055.47
2023-02-11T11:32:04.610Z,103055.31
2023-02-11T11:34:38.523Z,103058.50
2023-02-11T11:37:27.060Z,103051.06
2023-02-11T11:40:16.188Z,103055.09
2023-02-11T11:42:43.046Z,103053.06
2023-02-11T11:45:15.570Z,103054.59
2023-02-11T11:47:52.562Z,103053.88
2023-02-11T11:50:35.478Z,103053.06
2023-02-11T11:53:04.933Z,103042.56
2023-02-11T11:55:37.873Z,103046.28
2023-02-11T11:58:05.650Z,103051.69
2023-02-11T12:01:00.188Z,103046.94
2023-02-11T12:04:02.478Z,103051.16
2023-02-11T12:06:46.461Z,103050.97
2023-02-11T12:09:36.272Z,103049.94
2023-02-11T12:12:26.515Z,103052.34
2023-02-11T12:14:55.964Z,103047.13
2023-02-11T12:17:39.977Z,103047.97
2023-02-11T12:20:29.669Z,103047.94
2023-02-11T12:23:14.286Z,103051.00
2023-02-11T12:25:53.908Z,103052.00
2023-02-11T12:28:43.842Z,103055.41
2023-02-11T12:31:47.145Z,103046.28
2023-02-11T12:34:40.136Z,103053.72
2023-02-11T12:37:29.812Z,103047.63
2023-02-11T12:40:17.803Z,103053.06
2023-02-11T12:43:17.214Z,103052.34
2023-02-11T12:45:59.224Z,103055.72
2023-02-11T12:49:03.399Z,103059.09
2023-02-11T12:51:54.168Z,103054.72
2023-02-11T12:54:47.614Z,103048.25
2023-02-11T12:57:21.476Z,103056.72
2023-02-11T13:00:05.246Z,103050.28
2023-02-11T13:02:54.398Z,103047.25
2023-02-11T13:05:33.291Z,103033.84
2023-02-11T13:08:30.009Z,103035.72
2023-02-11T13:11:04.473Z,103030.31
2023-02-11T13:13:37.119Z,103032.34
2023-02-11T13:16:16.512Z,103036.91
2023-02-11T13:19:01.384Z,103034.84
2023-02-11T13:21:32.243Z,103042.50
2023-02-11T13:24:13.796Z,103035.22
2023-02-11T13:27:11.567Z,103030.34
2023-02-11T13:29:58.267Z,103032.03
2023-02-11T13:32:24.693Z,103043.53
2023-02-11T13:34:51.093Z,103038.81
2023-02-11T13:37:26.646Z,103026.47
2023-02-11T13:40:04.768Z,103032.06
2023-02-11T13:42:34.006Z,103038.97
2023-02-11T13:45:01.365Z,103035.41
2023-02-11T13:47:36.546Z,103039.81
2023-02-11T13:50:06.344Z,103037.09
2023-02-11T13:52:37.411Z,103035.53
2023-02-11T13:55:21.524Z,103031.31
2023-02-11T13:58:07.973Z,103028.47
2023-02-11T14:00:34.317Z,103014.78
2023-02-11T14:03:42.218Z,103028.59
2023-02-11T14:06:26.940Z,103024.53
2023-02-11T14:09:13.369Z,103021.97
2023-02-11T14:11:49.703Z,103029.56
2023-02-11T14:14:24.111Z,103029.56
2023-02-11T14:17:00.206Z,103023.31
2023-02-11T14:19:39.609Z,103033.94
2023-02-11T14:22:17.020Z,103027.84
2023-02-11T14:24:54.287Z,103021.97
2023-02-11T14:27:27.677Z,103021.91
2023-02-11T14:30:12.229Z,103024.97
2023-02-11T14:33:06.283Z,103032.94
2023-02-11T14:35:32.610Z,103037.34
2023-02-11T14:38:37.788Z,103046.47
2023-02-11T14:41:24.397Z,103046.81
2023-02-11T14:43:55.372Z,103045.09
2023-02-11T14:46:23.429Z,103041.00
2023-02-11T14:48:53.700Z,103036.56
2023-02-11T14:51:25.674Z,103037.22
2023-02-11T14:54:04.682Z,103035.84
2023-02-11T14:56:31.981Z,103035.53
2023-02-11T14:58:58.676Z,103039.94
2023-02-11T15:01:40.491Z,103047.69
2023-02-11T15:04:23.655Z,103040.91
2023-02-11T15:06:50.182Z,103046.97
2023-02-11T15:09:26.804Z,103037.00
2023-02-11T15:11:55.135Z,103042.53
2023-02-11T15:14:31.168Z,103033.41
2023-02-11T15:17:01.219Z,103038.81
2023-02-11T15:19:41.613Z,103042.69
2023-02-11T15:22:21.920Z,103045.56
2023-02-11T15:25:06.797Z,103050.63
2023-02-11T15:27:44.069Z,103051.00
2023-02-11T15:30:22.619Z,103059.28
2023-02-11T15:33:00.730Z,103064.06
2023-02-11T15:35:36.924Z,103063.00
2023-02-11T15:38:04.515Z,103060.50
2023-02-11T15:40:34.757Z,103065.78
2023-02-11T15:43:09.737Z,103067.09
2023-02-11T15:45:40.272Z,103066.75
2023-02-11T15:48:15.981Z,103061.69
2023-02-11T15:50:48.432Z,103066.28
2023-02-11T15:53:44.436Z,103069.09
2023-02-11T15:56:20.097Z,103065.56
2023-02-11T15:58:49.136Z,103069.59
2023-02-11T16:01:15.732Z,103067.91
2023-02-11T16:03:43.746Z,103066.22
2023-02-11T16:06:25.963Z,103067.25
2023-02-11T16:09:23.034Z,103072.19
2023-02-11T16:11:49.296Z,103071.34
2023-02-11T16:14:29.656Z,103078.25
2023-02-11T16:17:10.959Z,103087.72
2023-02-11T16:19:45.664Z,103084.84
2023-02-11T16:22:17.625Z,103083.81
2023-02-11T16:24:47.442Z,103080.25
2023-02-11T16:27:28.412Z,103080.97
2023-02-11T16:29:54.972Z,103088.97
2023-02-11T16:32:24.528Z,103089.66
2023-02-11T16:34:52.176Z,103091.16
2023-02-11T16:37:18.602Z,103093.03
2023-02-11T16:39:44.999Z,103098.91
2023-02-11T16:42:12.181Z,103103.50
2023-02-11T16:44:38.820Z,103106.38
2023-02-11T16:47:08.213Z,103113.16
2023-02-11T16:49:38.189Z,103116.03
2023-02-11T16:52:12.543Z,103112.28
2023-02-11T16:54:39.072Z,103118.75
2023-02-11T16:57:13.824Z,103114.34
2023-02-11T16:59:40.214Z,103126.59
2023-02-11T17:02:14.371Z,103115.75
2023-02-11T17:04:41.230Z,103112.00
2023-02-11T17:07:07.666Z,103113.72
2023-02-11T17:09:34.176Z,103114.06
2023-02-11T17:12:00.802Z,103122.69
2023-02-11T17:14:27.303Z,103112.56
2023-02-11T17:16:53.687Z,103124.06
2023-02-11T17:19:23.537Z,103129.31
2023-02-11T17:21:52.361Z,103123.72
2023-02-11T17:24:20.184Z,103131.69
2023-02-11T17:26:47.183Z,103135.56
2023-02-11T17:29:16.084Z,103134.72
2023-02-11T17:31:43.229Z,103132.84
2023-02-11T17:34:10.396Z,103137.44
2023-02-11T17:36:36.873Z,103148.28
2023-02-11T17:39:07.728Z,103143.19
2023-02-11T17:41:36.529Z,103145.56
2023-02-11T17:44:03.190Z,103137.44
2023-02-11T17:46:29.664Z,103138.78
2023-02-11T17:48:58.727Z,103137.09
2023-02-11T17:51:30.489Z,103147.94
2023-02-11T17:53:59.007Z,103139.97
2023-02-11T17:56:25.683Z,103160.13
2023-02-11T17:58:53.128Z,103153.69
2023-02-11T18:01:20.197Z,103154.38
2023-02-11T18:03:46.671Z,103164.22
2023-02-11T18:06:13.154Z,103168.63
2023-02-11T18:08:39.704Z,103162.50
2023-02-11T18:11:09.781Z,103170.28
2023-02-11T18:13:36.165Z,103176.38
2023-02-11T18:16:04.155Z,103171.28
2023-02-11T18:18:31.159Z,103160.44
2023-02-11T18:20:58.967Z,103171.63
2023-02-11T18:23:26.246Z,103170.13
2023-02-11T18:25:53.248Z,103177.41
2023-02-11T18:28:19.881Z,103173.38
2023-02-11T18:30:46.302Z,103180.84
2023-02-11T18:33:14.459Z,103170.66
2023-02-11T18:35:41.723Z,103166.56
2023-02-11T18:38:08.687Z,103164.53
2023-02-11T18:40:38.489Z,103174.16
2023-02-11T18:43:04.914Z,103170.28
2023-02-11T18:45:31.609Z,103168.63
2023-02-11T18:48:01.421Z,103177.75
2023-02-11T18:50:27.833Z,103181.66
2023-02-11T18:52:54.204Z,103178.13
2023-02-11T18:55:25.257Z,103183.16
2023-02-11T18:57:52.778Z,103181.50
2023-02-11T19:00:20.300Z,103182.34
2023-02-11T19:02:46.639Z,103179.47
2023-02-11T19:05:13.253Z,103184.88
2023-02-11T19:07:39.729Z,103184.03
2023-02-11T19:10:07.049Z,103186.91
2023-02-11T19:12:33.494Z,103183.53
2023-02-11T19:15:00.700Z,103185.22
2023-02-11T19:17:27.224Z,103185.88
2023-02-11T19:19:53.647Z,103181.81
2023-02-11T19:22:20.190Z,103186.72
2023-02-11T19:24:46.554Z,103187.06
2023-02-11T19:27:12.943Z,103194.38
2023-02-11T19:29:39.284Z,103202.84
2023-02-11T19:32:06.253Z,103203.88
2023-02-11T19:34:33.315Z,103204.72
2023-02-11T19:37:01.568Z,103206.75
2023-02-11T19:39:28.180Z,103201.16
2023-02-11T19:41:54.648Z,103204.22
2023-02-11T19:44:21.234Z,103204.22
2023-02-11T19:46:48.743Z,103204.56
2023-02-11T19:49:22.716Z,103207.94
2023-02-11T19:51:50.662Z,103206.91
2023-02-11T19:54:17.214Z,103213.69
2023-02-11T19:56:44.776Z,103209.63
2023-02-11T19:59:11.693Z,103209.78
2023-02-11T20:01:38.091Z,103204.56
2023-02-11T20:04:05.304Z,103208.97
2023-02-11T20:06:32.977Z,103203.91
2023-02-11T20:09:06.471Z,103201.88
2023-02-11T20:11:34.241Z,103208.97
2023-02-11T20:14:00.688Z,103209.78
2023-02-11T20:16:46.278Z,103216.41
2023-02-11T20:19:17.579Z,103218.44
2023-02-11T20:21:46.933Z,103220.16
2023-02-11T20:24:14.110Z,103215.75
2023-02-11T20:26:42.318Z,103229.63
2023-02-11T20:29:08.837Z,103229.31
2023-02-11T20:31:35.460Z,103231.50
2023-02-11T20:34:02.324Z,103243.84
2023-02-11T20:36:31.999Z,103236.41
2023-02-11T20:39:00.010Z,103236.06
2023-02-11T20:41:30.714Z,103240.16
2023-02-11T20:44:01.192Z,103242.19
2023-02-11T20:46:29.952Z,103244.03
2023-02-11T20:48:57.565Z,103241.50
2023-02-11T20:51:29.844Z,103239.78
2023-02-11T20:53:57.198Z,103254.03
2023-02-11T20:56:26.510Z,103244.19
2023-02-11T20:58:53.594Z,103252.66
2023-02-11T21:01:23.279Z,103254.50
2023-02-11T21:03:58.211Z,103244.88
2023-02-11T21:06:26.726Z,103256.41
2023-02-11T21:08:54.086Z,103260.13
2023-02-11T21:11:21.023Z,103259.97
2023-02-11T21:13:48.609Z,103253.34
2023-02-11T21:16:17.500Z,103256.75
2023-02-11T21:18:43.946Z,103254.72
2023-02-11T21:21:10.372Z,103247.94
2023-02-11T21:23:39.418Z,103254.72
2023-02-11T21:26:06.899Z,103249.28
2023-02-11T21:28:33.900Z,103261.47
2023-02-11T21:31:00.962Z,103266.22
2023-02-11T21:33:27.939Z,103265.56
2023-02-11T21:35:56.268Z,103269.78
2023-02-11T21:38:23.321Z,103270.41
2023-02-11T21:40:50.470Z,103273.50
2023-02-11T21:43:16.934Z,103265.16
2023-02-11T21:45:44.799Z,103270.28
2023-02-11T21:48:12.435Z,103261.47
2023-02-11T21:50:44.104Z,103268.09
2023-02-11T21:53:11.357Z,103278.41
2023-02-11T21:55:38.975Z,103277.03
2023-02-11T21:58:06.129Z,103275.53
2023-02-11T22:00:33.893Z,103276.06
2023-02-11T22:03:00.815Z,103273.00
2023-02-11T22:05:27.534Z,103282.81
2023-02-11T22:07:54.109Z,103280.44
2023-02-11T22:10:20.706Z,103278.06
2023-02-11T22:12:47.540Z,103284.84
2023-02-11T22:15:14.159Z,103277.22
2023-02-11T22:17:40.652Z,103274.34
2023-02-11T22:20:07.966Z,103278.41
2023-02-11T22:22:35.414Z,103276.53
2023-02-11T22:25:02.223Z,103283.13
2023-02-11T22:27:28.747Z,103277.56
2023-02-11T22:29:55.256Z,103280.25
2023-02-11T22:32:21.717Z,103278.56
2023-02-11T22:34:48.097Z,103281.09
2023-02-11T22:37:15.013Z,103276.34
2023-02-11T22:39:42.596Z,103278.41
2023-02-11T22:42:09.095Z,103275.69
2023-02-11T22:44:36.934Z,103278.03
2023-02-11T22:47:03.484Z,103283.44
2023-02-11T22:49:32.424Z,103279.75
2023-02-11T22:51:59.351Z,103282.44
2023-02-11T22:54:26.061Z,103287.84
2023-02-11T22:56:53.240Z,103282.28
2023-02-11T22:59:19.735Z,103285.31
2023-02-11T23:01:46.501Z,103290.22
2023-02-11T23:04:15.858Z,103300.56
2023-02-11T23:06:42.651Z,103302.75
2023-02-11T23:09:12.164Z,103308.00
2023-02-11T23:11:39.180Z,103307.34
2023-02-11T23:14:05.813Z,103308.34
2023-02-11T23:16:34.124Z,103318.63
2023-02-11T23:19:04.561Z,103321.34
2023-02-11T23:21:33.093Z,103317.94
2023-02-11T23:24:02.354Z,103321.03
2023-02-11T23:26:28.926Z,103320.66
2023-02-11T23:28:55.632Z,103312.03
2023-02-11T23:31:31.458Z,103320.00
2023-02-11T23:33:57.952Z,103320.16
2023-02-11T23:36:24.376Z,103311.72
2023-02-11T23:38:51.972Z,103316.59
2023-02-11T23:41:18.520Z,103313.56
2023-02-11T23:43:50.050Z,103316.78
2023-02-11T23:46:16.612Z,103316.28
2023-02-11T23:48:43.463Z,103324.41
2023-02-11T23:51:09.891Z,103310.69
2023-02-11T23:53:39.741Z,103315.94
2023-02-11T23:56:13.290Z,103321.50
2023-02-11T23:58:39.782Z,103316.28
